createdAt,value
2022-10-11T00:02:09.222Z,3.10
2022-10-11T00:04:35.859Z,3.50
2022-10-11T00:07:02.372Z,3.20
2022-10-11T00:09:29.949Z,3.40
2022-10-11T00:11:57.180Z,2.60
2022-10-11T00:14:26.275Z,2.50
2022-10-11T00:16:54.080Z,3.00
2022-10-11T00:19:21.503Z,2.70
2022-10-11T00:21:48.110Z,2.50
2022-10-11T00:24:16.220Z,2.80
2022-10-11T00:26:46.590Z,3.00
2022-10-11T00:29:13.989Z,2.80
2022-10-11T00:31:40.807Z,2.90
2022-10-11T00:34:08.765Z,3.00
2022-10-11T00:36:35.747Z,2.00
2022-10-11T00:39:02.923Z,2.60
2022-10-11T00:41:29.775Z,2.90
2022-10-11T00:44:21.525Z,2.80
2022-10-11T00:46:58.376Z,2.50
2022-10-11T00:49:39.596Z,2.50
2022-10-11T00:52:24.108Z,3.10
2022-10-11T00:54:51.307Z,2.90
2022-10-11T00:57:22.501Z,3.30
2022-10-11T00:59:53.138Z,3.10
2022-10-11T01:02:21.127Z,3.10
2022-10-11T01:04:47.737Z,3.10
2022-10-11T01:07:14.474Z,3.10
2022-10-11T01:09:41.091Z,3.10
2022-10-11T01:12:19.132Z,2.80
2022-10-11T01:15:18.140Z,2.80
2022-10-11T01:18:11.182Z,2.80
2022-10-11T01:21:09.159Z,2.80
2022-10-11T01:24:08.783Z,2.60
2022-10-11T01:26:54.801Z,2.70
2022-10-11T01:30:10.035Z,4.00
2022-10-11T01:32:54.129Z,3.10
2022-10-11T01:35:34.843Z,2.80
2022-10-11T01:38:29.030Z,3.30
2022-10-11T01:41:03.881Z,3.60
2022-10-11T01:43:31.225Z,3.30
2022-10-11T01:46:00.133Z,3.10
2022-10-11T01:48:26.833Z,3.30
2022-10-11T01:50:58.808Z,3.40
2022-10-11T01:54:13.223Z,3.30
2022-10-11T01:57:14.571Z,3.40
2022-10-11T01:59:50.997Z,3.20
2022-10-11T02:02:50.024Z,3.50
2022-10-11T02:05:57.080Z,3.10
2022-10-11T02:08:48.315Z,3.50
2022-10-11T02:11:31.747Z,3.60
2022-10-11T02:14:23.598Z,3.50
2022-10-11T02:17:11.073Z,3.40
2022-10-11T02:19:43.974Z,3.80
2022-10-11T02:22:19.234Z,4.00
2022-10-11T02:24:50.469Z,3.70
2022-10-11T02:27:21.724Z,3.60
2022-10-11T02:29:51.431Z,3.50
2022-10-11T02:32:19.724Z,3.60
2022-10-11T02:34:59.416Z,3.70
2022-10-11T02:37:41.520Z,3.30
2022-10-11T02:40:20.981Z,3.80
2022-10-11T02:42:59.783Z,3.60
2022-10-11T02:45:37.581Z,3.70
2022-10-11T02:48:06.740Z,3.90
2022-10-11T02:50:33.451Z,3.30
2022-10-11T02:53:00.176Z,3.70
2022-10-11T02:55:26.778Z,3.90
2022-10-11T02:57:53.792Z,3.60
2022-10-11T03:00:20.590Z,3.70
2022-10-11T03:02:47.371Z,3.90
2022-10-11T03:05:14.204Z,3.80
2022-10-11T03:07:40.799Z,3.90
2022-10-11T03:10:08.268Z,3.60
2022-10-11T03:12:34.873Z,3.60
2022-10-11T03:15:02.248Z,3.60
2022-10-11T03:17:36.476Z,3.80
2022-10-11T03:20:05.884Z,3.50
2022-10-11T03:22:32.562Z,3.70
2022-10-11T03:25:03.632Z,4.10
2022-10-11T03:27:32.690Z,4.20
2022-10-11T03:29:59.339Z,4.00
2022-10-11T03:32:26.278Z,4.00
2022-10-11T03:34:52.876Z,3.70
2022-10-11T03:37:19.501Z,3.70
2022-10-11T03:39:46.112Z,3.80
2022-10-11T03:42:14.042Z,3.30
2022-10-11T03:44:42.143Z,3.70
2022-10-11T03:47:09.374Z,2.40
2022-10-11T03:49:38.809Z,3.20
2022-10-11T03:52:23.182Z,3.10
2022-10-11T03:54:49.712Z,2.90
2022-10-11T03:57:16.319Z,2.70
2022-10-11T03:59:42.864Z,3.20
2022-10-11T04:02:09.778Z,2.90
2022-10-11T04:04:37.436Z,3.00
2022-10-11T04:07:04.049Z,3.10
2022-10-11T04:09:31.103Z,3.00
2022-10-11T04:11:57.850Z,3.20
2022-10-11T04:14:24.431Z,3.10
2022-10-11T04:16:51.004Z,3.00
2022-10-11T04:19:17.568Z,3.30
2022-10-11T04:21:44.144Z,3.00
2022-10-11T04:24:13.495Z,3.10
2022-10-11T04:26:40.154Z,3.10
2022-10-11T04:29:06.658Z,3.20
2022-10-11T04:31:33.206Z,3.00
2022-10-11T04:33:59.815Z,2.90
2022-10-11T04:36:26.581Z,3.10
2022-10-11T04:38:56.145Z,3.00
2022-10-11T04:41:22.658Z,3.10
2022-10-11T04:43:49.217Z,3.00
2022-10-11T04:46:15.797Z,3.20
2022-10-11T04:48:42.322Z,2.80
2022-10-11T04:51:08.863Z,3.50
2022-10-11T04:53:35.474Z,3.30
2022-10-11T04:56:07.854Z,3.40
2022-10-11T04:58:35.309Z,3.10
2022-10-11T05:01:01.942Z,3.50
2022-10-11T05:03:28.513Z,3.70
2022-10-11T05:05:55.339Z,3.60
2022-10-11T05:08:23.375Z,3.20
2022-10-11T05:11:02.270Z,3.40
2022-10-11T05:13:29.719Z,3.40
2022-10-11T05:15:57.047Z,3.10
2022-10-11T05:18:24.572Z,3.20
2022-10-11T05:21:03.477Z,3.10
2022-10-11T05:23:33.235Z,2.80
2022-10-11T05:26:00.695Z,2.90
2022-10-11T05:28:28.344Z,3.60
2022-10-11T05:30:55.303Z,4.90
2022-10-11T05:33:22.354Z,3.70
2022-10-11T05:35:48.893Z,3.30
2022-10-11T05:38:17.548Z,3.30
2022-10-11T05:40:44.114Z,4.50
2022-10-11T05:43:11.454Z,3.70
2022-10-11T05:45:40.436Z,3.30
2022-10-11T05:48:06.994Z,4.20
2022-10-11T05:50:33.832Z,4.10
2022-10-11T05:53:00.529Z,4.20
2022-10-11T05:55:28.088Z,3.60
2022-10-11T05:57:56.801Z,4.10
2022-10-11T06:00:24.539Z,4.10
2022-10-11T06:02:51.181Z,3.80
2022-10-11T06:05:18.207Z,3.70
2022-10-11T06:07:44.829Z,3.80
2022-10-11T06:10:12.492Z,3.80
2022-10-11T06:12:39.130Z,4.00
2022-10-11T06:15:07.492Z,3.30
2022-10-11T06:17:34.757Z,3.50
2022-10-11T06:20:01.335Z,3.60
2022-10-11T06:22:28.040Z,3.30
2022-10-11T06:24:54.541Z,3.40
2022-10-11T06:27:21.241Z,3.60
2022-10-11T06:29:47.891Z,3.80
2022-10-11T06:32:14.536Z,3.40
2022-10-11T06:34:41.554Z,3.70
2022-10-11T06:37:08.781Z,3.60
2022-10-11T06:39:35.914Z,3.60
2022-10-11T06:42:02.632Z,3.00
2022-10-11T06:44:29.402Z,3.00
2022-10-11T06:46:56.015Z,3.30
2022-10-11T06:49:23.633Z,3.40
2022-10-11T06:51:51.093Z,3.20
2022-10-11T06:54:17.705Z,3.00
2022-10-11T06:56:45.619Z,3.30
2022-10-11T06:59:13.431Z,3.20
2022-10-11T07:01:40.144Z,3.30
2022-10-11T07:04:08.102Z,3.10
2022-10-11T07:06:39.167Z,3.80
2022-10-11T07:09:07.511Z,4.60
2022-10-11T07:11:35.028Z,8.00
2022-10-11T07:14:07.601Z,4.00
2022-10-11T07:16:37.319Z,3.10
2022-10-11T07:19:06.457Z,4.20
2022-10-11T07:21:34.567Z,4.20
2022-10-11T07:24:02.136Z,3.30
2022-10-11T07:26:35.186Z,3.10
2022-10-11T07:29:04.539Z,3.50
2022-10-11T07:31:31.209Z,2.90
2022-10-11T07:33:57.821Z,3.90
2022-10-11T07:36:25.746Z,3.40
2022-10-11T07:38:52.660Z,3.10
2022-10-11T07:41:20.002Z,4.30
2022-10-11T07:43:49.548Z,3.70
2022-10-11T07:46:19.190Z,3.40
2022-10-11T07:48:45.875Z,3.20
2022-10-11T07:51:20.021Z,2.80
2022-10-11T07:53:54.316Z,3.80
2022-10-11T07:56:27.658Z,3.60
2022-10-11T07:59:00.896Z,3.50
2022-10-11T08:01:28.411Z,2.80
2022-10-11T08:03:59.516Z,1.80
2022-10-11T08:06:31.632Z,2.90
2022-10-11T08:09:00.594Z,2.90
2022-10-11T08:11:34.881Z,3.20
2022-10-11T08:14:06.188Z,2.30
2022-10-11T08:16:32.778Z,2.60
2022-10-11T08:19:00.701Z,2.60
2022-10-11T08:21:27.239Z,2.30
2022-10-11T08:23:53.757Z,3.40
2022-10-11T08:26:21.196Z,3.00
2022-10-11T08:28:47.955Z,3.00
2022-10-11T08:31:16.200Z,2.90
2022-10-11T08:33:43.339Z,2.60
2022-10-11T08:36:10.918Z,2.60
2022-10-11T08:38:38.903Z,2.80
2022-10-11T08:41:39.481Z,4.20
2022-10-11T08:45:05.399Z,3.40
2022-10-11T08:47:34.173Z,2.90
2022-10-11T08:50:01.322Z,2.60
2022-10-11T08:52:41.904Z,2.90
2022-10-11T08:55:40.524Z,3.00
2022-10-11T08:58:09.296Z,3.60
2022-10-11T09:00:38.390Z,3.10
2022-10-11T09:03:31.560Z,2.50
2022-10-11T09:06:35.248Z,2.70
2022-10-11T09:09:41.863Z,3.20
2022-10-11T09:12:41.085Z,2.70
2022-10-11T09:15:32.793Z,3.00
2022-10-11T09:18:54.256Z,2.80
2022-10-11T09:21:36.815Z,3.40
2022-10-11T09:24:25.168Z,4.20
2022-10-11T09:27:00.877Z,2.90
2022-10-11T09:29:57.576Z,3.50
2022-10-11T09:32:36.090Z,3.10
2022-10-11T09:35:14.403Z,4.20
2022-10-11T09:38:23.082Z,3.60
2022-10-11T09:41:15.247Z,3.60
2022-10-11T09:43:48.426Z,3.50
2022-10-11T09:46:32.669Z,3.80
2022-10-11T09:49:03.886Z,3.60
2022-10-11T09:51:31.599Z,3.70
2022-10-11T09:54:02.069Z,3.70
2022-10-11T09:56:32.053Z,3.40
2022-10-11T09:59:31.526Z,3.60
2022-10-11T10:02:13.278Z,4.10
2022-10-11T10:05:11.221Z,3.50
2022-10-11T10:07:40.962Z,3.30
2022-10-11T10:10:38.972Z,3.90
2022-10-11T10:13:21.847Z,4.90
2022-10-11T10:15:55.612Z,4.90
2022-10-11T10:18:28.465Z,3.90
2022-10-11T10:20:59.535Z,3.60
2022-10-11T10:23:33.043Z,4.00
2022-10-11T10:26:22.715Z,4.30
2022-10-11T10:29:09.161Z,4.50
2022-10-11T10:35:12.934Z,4.50
2022-10-11T10:37:53.011Z,3.60
2022-10-11T10:40:47.680Z,5.00
2022-10-11T10:43:18.735Z,3.90
2022-10-11T10:46:12.992Z,4.40
2022-10-11T10:52:25.342Z,4.00
2022-10-11T10:55:23.209Z,3.80
2022-10-11T10:58:18.584Z,3.10
2022-10-11T11:00:50.276Z,3.10
2022-10-11T11:03:34.554Z,3.40
2022-10-11T11:06:08.243Z,3.00
2022-10-11T11:09:21.279Z,3.70
2022-10-11T11:12:05.905Z,3.50
2022-10-11T11:14:52.682Z,2.30
2022-10-11T11:18:03.602Z,3.50
2022-10-11T11:21:12.724Z,2.90
2022-10-11T11:24:10.296Z,2.90
2022-10-11T11:27:03.851Z,3.20
2022-10-11T11:30:17.347Z,3.20
2022-10-11T11:33:38.546Z,3.20
2022-10-11T11:36:13.652Z,3.60
2022-10-11T11:38:51.027Z,3.20
2022-10-11T11:41:26.176Z,3.00
2022-10-11T11:44:10.754Z,3.60
2022-10-11T11:46:44.826Z,3.10
2022-10-11T11:49:45.217Z,3.60
2022-10-11T11:52:37.228Z,3.30
2022-10-11T11:55:36.385Z,2.80
2022-10-11T11:58:35.086Z,2.70
2022-10-11T12:01:15.112Z,3.10
2022-10-11T12:03:48.441Z,3.50
2022-10-11T12:06:14.892Z,3.30
2022-10-11T12:08:46.421Z,3.50
2022-10-11T12:11:24.420Z,3.40
2022-10-11T12:13:53.907Z,3.00
2022-10-11T12:16:21.748Z,3.30
2022-10-11T12:18:56.333Z,3.30
2022-10-11T12:21:36.190Z,2.50
2022-10-11T12:24:24.139Z,2.40
2022-10-11T12:26:56.311Z,2.70
2022-10-11T12:29:44.679Z,2.70
2022-10-11T12:32:26.332Z,3.20
2022-10-11T12:35:31.424Z,2.70
2022-10-11T12:38:23.102Z,3.00
2022-10-11T12:41:09.467Z,3.40
2022-10-11T12:44:19.251Z,3.30
2022-10-11T12:46:54.865Z,3.10
2022-10-11T12:49:33.378Z,3.20
2022-10-11T12:52:22.952Z,3.00
2022-10-11T12:55:11.926Z,2.90
2022-10-11T12:58:07.530Z,3.20
2022-10-11T13:00:40.146Z,3.00
2022-10-11T13:03:39.227Z,2.40
2022-10-11T13:06:24.801Z,2.80
2022-10-11T13:09:05.059Z,2.90
2022-10-11T13:11:37.036Z,3.60
2022-10-11T13:14:13.361Z,3.10
2022-10-11T13:17:13.207Z,3.20
2022-10-11T13:22:23.352Z,3.50
2022-10-11T13:24:50.047Z,3.00
2022-10-11T13:27:27.439Z,3.40
2022-10-11T13:29:59.403Z,3.20
2022-10-11T13:32:31.891Z,3.20
2022-10-11T13:35:04.152Z,3.10
2022-10-11T13:37:45.259Z,3.30
2022-10-11T13:40:18.693Z,3.30
2022-10-11T13:42:48.355Z,3.20
2022-10-11T13:45:27.406Z,3.00
2022-10-11T13:47:55.082Z,3.00
2022-10-11T13:50:33.704Z,3.30
2022-10-11T13:53:23.166Z,3.20
2022-10-11T13:55:55.303Z,3.20
2022-10-11T13:58:34.211Z,2.90
2022-10-11T14:01:05.037Z,2.60
2022-10-11T14:03:44.216Z,3.50
2022-10-11T14:06:11.072Z,3.30
2022-10-11T14:08:46.587Z,3.70
2022-10-11T14:11:15.534Z,3.60
2022-10-11T14:13:45.860Z,3.90
2022-10-11T14:16:29.970Z,4.00
2022-10-11T14:18:59.683Z,3.80
2022-10-11T14:21:49.196Z,3.50
2022-10-11T14:24:17.896Z,3.90
2022-10-11T14:26:50.880Z,4.30
2022-10-11T14:29:28.672Z,3.60
2022-10-11T14:32:04.981Z,3.70
2022-10-11T14:34:33.245Z,3.90
2022-10-11T14:37:00.051Z,4.10
2022-10-11T14:39:30.472Z,5.10
2022-10-11T14:41:57.528Z,4.80
2022-10-11T14:44:24.544Z,4.80
2022-10-11T14:46:54.560Z,4.30
2022-10-11T14:49:29.283Z,4.20
2022-10-11T14:51:58.272Z,3.70
2022-10-11T14:54:28.322Z,5.00
2022-10-11T14:56:59.065Z,4.90
2022-10-11T14:59:31.185Z,5.10
2022-10-11T15:01:57.719Z,5.00
2022-10-11T15:04:26.821Z,5.30
2022-10-11T15:06:57.013Z,4.40
2022-10-11T15:09:28.425Z,4.40
2022-10-11T15:11:56.189Z,4.40
2022-10-11T15:14:25.225Z,4.50
2022-10-11T15:16:51.974Z,4.60
2022-10-11T15:19:24.969Z,4.80
2022-10-11T15:21:52.558Z,3.90
2022-10-11T15:24:22.516Z,5.00
2022-10-11T15:26:49.527Z,3.60
2022-10-11T15:29:21.863Z,5.00
2022-10-11T15:31:49.463Z,5.80
2022-10-11T15:34:16.921Z,4.70
2022-10-11T15:36:43.678Z,4.70
2022-10-11T15:39:37.176Z,4.40
2022-10-11T15:42:03.924Z,4.60
2022-10-11T15:44:30.439Z,4.20
2022-10-11T15:46:57.015Z,4.60
2022-10-11T15:49:23.588Z,4.30
2022-10-11T15:51:50.201Z,4.60
2022-10-11T15:54:16.765Z,4.40
2022-10-11T15:56:43.333Z,3.00
2022-10-11T15:59:11.905Z,4.50
2022-10-11T16:01:38.672Z,4.60
2022-10-11T16:04:05.441Z,4.50
2022-10-11T16:06:33.352Z,5.10
2022-10-11T16:08:59.925Z,4.00
2022-10-11T16:11:26.574Z,4.70
2022-10-11T16:33:54.553Z,4.10
2022-10-11T16:36:32.418Z,3.60
2022-10-11T16:39:01.768Z,4.50
2022-10-11T16:41:28.343Z,4.10
2022-10-11T16:43:55.801Z,4.30
2022-10-11T16:46:22.765Z,4.00
2022-10-11T16:48:49.678Z,4.00
2022-10-11T16:51:16.289Z,4.50
2022-10-11T16:53:42.939Z,4.40
2022-10-11T16:56:11.273Z,4.70
2022-10-11T16:58:37.874Z,4.40
2022-10-11T17:01:10.487Z,3.40
2022-10-11T17:03:37.684Z,4.10
2022-10-11T17:06:06.233Z,4.30
2022-10-11T17:08:33.464Z,4.10
2022-10-11T17:11:00.463Z,4.70
2022-10-11T17:13:27.808Z,4.60
2022-10-11T17:15:54.429Z,4.40
2022-10-11T17:18:21.072Z,4.70
2022-10-11T17:20:47.935Z,4.70
2022-10-11T17:23:14.703Z,5.20
2022-10-11T17:25:46.541Z,5.20
2022-10-11T17:28:13.682Z,6.40
2022-10-11T17:30:43.271Z,5.20
2022-10-11T17:33:09.944Z,5.90
2022-10-11T17:35:36.704Z,6.40
2022-10-11T17:38:06.283Z,5.70
2022-10-11T17:40:33.314Z,3.60
2022-10-11T17:42:59.943Z,5.30
2022-10-11T17:45:26.628Z,6.30
2022-10-11T17:47:53.239Z,4.80
2022-10-11T17:50:19.807Z,5.30
2022-10-11T17:52:46.518Z,5.90
2022-10-11T17:55:13.598Z,6.60
2022-10-11T17:57:40.301Z,6.70
2022-10-11T18:00:07.969Z,7.60
2022-10-11T18:02:34.628Z,7.50
2022-10-11T18:05:01.332Z,7.00
2022-10-11T18:07:28.000Z,7.40
2022-10-11T18:09:55.491Z,7.70
2022-10-11T18:12:22.202Z,6.40
2022-10-11T18:14:50.982Z,8.10
2022-10-11T18:17:18.608Z,8.20
2022-10-11T18:19:45.211Z,7.60
2022-10-11T18:22:11.853Z,7.50
2022-10-11T18:24:39.131Z,6.70
2022-10-11T18:27:05.752Z,7.50
2022-10-11T18:29:32.573Z,9.00
2022-10-11T18:31:59.154Z,8.60
2022-10-11T18:34:28.185Z,8.00
2022-10-11T18:36:54.823Z,9.30
2022-10-11T18:39:22.113Z,8.10
2022-10-11T18:41:48.872Z,9.00
2022-10-11T18:44:16.101Z,7.60
2022-10-11T18:46:44.181Z,7.90
2022-10-11T18:49:11.243Z,8.30
2022-10-11T18:51:42.359Z,8.30
2022-10-11T18:54:16.940Z,8.50
2022-10-11T18:56:46.915Z,8.60
2022-10-11T18:59:13.606Z,8.00
2022-10-11T19:01:44.318Z,7.60
2022-10-11T19:04:15.617Z,8.90
2022-10-11T19:06:47.721Z,7.30
2022-10-11T19:09:21.834Z,7.90
2022-10-11T19:11:51.735Z,5.40
2022-10-11T19:14:25.557Z,6.10
2022-10-11T19:16:55.249Z,9.20
2022-10-11T19:19:27.015Z,9.50
2022-10-11T19:21:54.622Z,7.80
2022-10-11T19:24:24.449Z,7.80
2022-10-11T19:26:54.710Z,8.40
2022-10-11T19:29:28.690Z,7.40
2022-10-11T19:32:01.100Z,8.90
2022-10-11T19:34:28.780Z,7.50
2022-10-11T19:36:57.504Z,8.50
2022-10-11T19:39:25.543Z,8.00
2022-10-11T19:41:52.741Z,6.90
2022-10-11T19:44:20.312Z,7.80
2022-10-11T19:46:52.756Z,7.80
2022-10-11T19:49:24.668Z,7.30
2022-10-11T19:51:52.935Z,8.70
2022-10-11T19:54:19.906Z,7.70
2022-10-11T19:56:47.362Z,9.20
2022-10-11T19:59:15.509Z,8.70
2022-10-11T20:01:42.531Z,8.60
2022-10-11T20:04:33.250Z,7.70
2022-10-11T20:06:59.074Z,7.20
2022-10-11T20:09:30.672Z,8.30
2022-10-11T20:11:58.185Z,7.50
2022-10-11T20:14:25.162Z,7.90
2022-10-11T20:16:52.171Z,8.40
2022-10-11T20:19:19.406Z,7.20
2022-10-11T20:21:46.194Z,9.20
2022-10-11T20:24:13.080Z,8.20
2022-10-11T20:26:40.153Z,7.40
2022-10-11T20:29:07.931Z,8.00
2022-10-11T20:31:38.470Z,8.90
2022-10-11T20:34:07.484Z,8.50
2022-10-11T20:36:36.296Z,8.40
2022-10-11T20:39:05.852Z,7.80
2022-10-11T20:41:37.336Z,8.80
2022-10-11T20:44:05.384Z,8.80
2022-10-11T20:46:36.215Z,8.50
2022-10-11T20:49:09.873Z,8.80
2022-10-11T20:51:39.090Z,9.00
2022-10-11T20:54:07.854Z,9.50
2022-10-11T20:56:35.441Z,8.20
2022-10-11T20:59:02.262Z,10.40
2022-10-11T21:01:40.798Z,9.50
2022-10-11T21:04:17.671Z,7.20
2022-10-11T21:06:44.426Z,8.70
2022-10-11T21:09:15.507Z,9.20
2022-10-11T21:11:43.469Z,9.40
2022-10-11T21:14:10.289Z,9.70
2022-10-11T21:16:36.894Z,10.80
2022-10-11T21:19:04.068Z,9.70
2022-10-11T21:21:31.168Z,8.50
2022-10-11T21:24:01.252Z,10.10
2022-10-11T21:26:28.981Z,9.30
2022-10-11T21:28:56.014Z,8.60
2022-10-11T21:31:23.369Z,9.90
2022-10-11T21:33:50.624Z,9.80
2022-10-11T21:36:24.286Z,9.90
2022-10-11T21:38:51.796Z,9.30
2022-10-11T21:41:22.339Z,9.50
2022-10-11T21:43:49.538Z,9.90
2022-10-11T21:46:23.764Z,6.90
2022-10-11T21:48:51.727Z,8.70
2022-10-11T21:51:30.137Z,8.40
2022-10-11T21:54:00.606Z,9.50
2022-10-11T21:56:28.741Z,8.20
2022-10-11T21:58:55.513Z,7.50
2022-10-11T22:01:22.657Z,8.60
2022-10-11T22:03:50.192Z,10.00
2022-10-11T22:06:17.223Z,9.40
2022-10-11T22:08:44.105Z,10.80
2022-10-11T22:11:10.866Z,9.90
2022-10-11T22:13:38.277Z,10.80
2022-10-11T22:16:11.408Z,10.10
2022-10-11T22:18:38.737Z,10.90
2022-10-11T22:21:13.694Z,10.10
2022-10-11T22:23:44.855Z,10.60
2022-10-11T22:26:18.231Z,8.90
2022-10-11T22:28:48.906Z,11.70
2022-10-11T22:31:19.709Z,10.10
2022-10-11T22:33:46.680Z,10.80
2022-10-11T22:36:16.622Z,9.40
2022-10-11T22:38:43.958Z,11.20
2022-10-11T22:41:11.027Z,11.00
2022-10-11T22:43:38.097Z,11.00
2022-10-11T22:46:05.384Z,10.80
2022-10-11T22:48:32.226Z,10.50
2022-10-11T22:50:59.164Z,9.70
2022-10-11T22:53:25.894Z,10.60
2022-10-11T22:55:52.452Z,10.60
2022-10-11T22:58:19.110Z,7.90
2022-10-11T23:00:45.951Z,10.20
2022-10-11T23:03:17.484Z,10.00
2022-10-11T23:05:44.418Z,10.90
2022-10-11T23:08:10.942Z,8.00
2022-10-11T23:10:40.544Z,8.30
2022-10-11T23:13:07.113Z,10.50
2022-10-11T23:15:33.700Z,10.60
2022-10-11T23:18:00.226Z,10.50
2022-10-11T23:20:26.794Z,8.60
2022-10-11T23:22:53.321Z,11.00
2022-10-11T23:25:19.884Z,10.90
2022-10-11T23:27:46.393Z,10.60
2022-10-11T23:30:13.743Z,9.60
2022-10-11T23:32:40.275Z,11.10
2022-10-11T23:35:07.405Z,9.90
2022-10-11T23:37:33.976Z,11.00
2022-10-11T23:40:00.587Z,10.40
2022-10-11T23:42:27.838Z,11.40
2022-10-11T23:44:54.322Z,9.80
2022-10-11T23:47:20.852Z,12.60
2022-10-11T23:49:47.439Z,11.10
2022-10-11T23:52:13.991Z,11.70
2022-10-11T23:54:40.561Z,9.30
2022-10-11T23:57:07.129Z,11.60
2022-10-11T23:59:33.658Z,11.40
